sensor_id;sensor_type;location;lat;lon;timestamp;P1;durP1;ratioP1;P2;durP2;ratioP2
66669;SDS011;53568;52.164;4.472;2022-10-31T00:00:49;3.24;;;3.24;;
66669;SDS011;53568;52.164;4.472;2022-10-31T00:03:15;3.17;;;3.17;;
66669;SDS011;53568;52.164;4.472;2022-10-31T00:05:42;3.22;;;3.22;;
66669;SDS011;53568;52.164;4.472;2022-10-31T00:08:10;2.90;;;2.90;;
66669;SDS011;53568;52.164;4.472;2022-10-31T00:10:39;3.27;;;3.27;;
66669;SDS011;53568;52.164;4.472;2022-10-31T00:13:06;3.18;;;3.18;;
66669;SDS011;53568;52.164;4.472;2022-10-31T00:15:33;3.46;;;3.46;;
66669;SDS011;53568;52.164;4.472;2022-10-31T00:17:59;3.21;;;3.21;;
66669;SDS011;53568;52.164;4.472;2022-10-31T00:20:25;3.14;;;3.13;;
66669;SDS011;53568;52.164;4.472;2022-10-31T00:22:50;3.20;;;3.20;;
66669;SDS011;53568;52.164;4.472;2022-10-31T00:25:16;3.11;;;3.11;;
66669;SDS011;53568;52.164;4.472;2022-10-31T00:27:41;3.11;;;3.11;;
66669;SDS011;53568;52.164;4.472;2022-10-31T00:30:07;2.79;;;2.79;;
66669;SDS011;53568;52.164;4.472;2022-10-31T00:32:33;3.02;;;3.02;;
66669;SDS011;53568;52.164;4.472;2022-10-31T00:34:58;2.82;;;2.82;;
66669;SDS011;53568;52.164;4.472;2022-10-31T00:37:24;3.05;;;3.05;;
66669;SDS011;53568;52.164;4.472;2022-10-31T00:39:49;3.13;;;3.13;;
66669;SDS011;53568;52.164;4.472;2022-10-31T00:42:15;2.81;;;2.81;;
66669;SDS011;53568;52.164;4.472;2022-10-31T00:44:41;2.77;;;2.77;;
66669;SDS011;53568;52.164;4.472;2022-10-31T00:47:06;2.59;;;2.59;;
66669;SDS011;53568;52.164;4.472;2022-10-31T00:49:32;2.86;;;2.86;;
66669;SDS011;53568;52.164;4.472;2022-10-31T00:51:57;2.96;;;2.96;;
66669;SDS011;53568;52.164;4.472;2022-10-31T00:54:23;2.63;;;2.63;;
66669;SDS011;53568;52.164;4.472;2022-10-31T00:56:48;2.56;;;2.56;;
66669;SDS011;53568;52.164;4.472;2022-10-31T00:59:13;2.95;;;2.95;;
66669;SDS011;53568;52.164;4.472;2022-10-31T01:01:39;2.77;;;2.77;;
66669;SDS011;53568;52.164;4.472;2022-10-31T01:04:04;2.87;;;2.87;;
66669;SDS011;53568;52.164;4.472;2022-10-31T01:06:30;2.83;;;2.83;;
66669;SDS011;53568;52.164;4.472;2022-10-31T01:08:55;2.63;;;2.63;;
66669;SDS011;53568;52.164;4.472;2022-10-31T01:11:21;2.61;;;2.61;;
66669;SDS011;53568;52.164;4.472;2022-10-31T01:13:49;2.67;;;2.66;;
66669;SDS011;53568;52.164;4.472;2022-10-31T01:16:18;2.87;;;2.87;;
66669;SDS011;53568;52.164;4.472;2022-10-31T01:18:45;3.10;;;3.10;;
66669;SDS011;53568;52.164;4.472;2022-10-31T01:21:12;3.10;;;3.10;;
66669;SDS011;53568;52.164;4.472;2022-10-31T01:23:40;3.10;;;3.10;;
66669;SDS011;53568;52.164;4.472;2022-10-31T01:26:10;3.30;;;3.30;;
66669;SDS011;53568;52.164;4.472;2022-10-31T01:28:53;2.95;;;2.95;;
66669;SDS011;53568;52.164;4.472;2022-10-31T01:31:23;3.08;;;3.08;;
66669;SDS011;53568;52.164;4.472;2022-10-31T01:33:51;3.16;;;3.16;;
66669;SDS011;53568;52.164;4.472;2022-10-31T01:36:21;3.29;;;3.29;;
66669;SDS011;53568;52.164;4.472;2022-10-31T01:38:49;3.20;;;3.20;;
66669;SDS011;53568;52.164;4.472;2022-10-31T01:41:20;3.51;;;3.51;;
66669;SDS011;53568;52.164;4.472;2022-10-31T01:43:49;3.35;;;3.35;;
66669;SDS011;53568;52.164;4.472;2022-10-31T01:46:52;3.27;;;3.27;;
66669;SDS011;53568;52.164;4.472;2022-10-31T01:52:30;3.47;;;3.47;;
66669;SDS011;53568;52.164;4.472;2022-10-31T01:55:16;3.68;;;3.68;;
66669;SDS011;53568;52.164;4.472;2022-10-31T01:57:59;3.73;;;3.73;;
66669;SDS011;53568;52.164;4.472;2022-10-31T02:00:31;4.14;;;4.14;;
66669;SDS011;53568;52.164;4.472;2022-10-31T02:02:57;4.31;;;4.31;;
66669;SDS011;53568;52.164;4.472;2022-10-31T02:05:24;3.95;;;3.95;;
66669;SDS011;53568;52.164;4.472;2022-10-31T02:07:58;4.00;;;4.00;;
66669;SDS011;53568;52.164;4.472;2022-10-31T02:10:30;4.17;;;4.17;;
66669;SDS011;53568;52.164;4.472;2022-10-31T02:12:59;4.32;;;4.32;;
66669;SDS011;53568;52.164;4.472;2022-10-31T02:15:30;4.43;;;4.43;;
66669;SDS011;53568;52.164;4.472;2022-10-31T02:17:57;4.19;;;4.19;;
66669;SDS011;53568;52.164;4.472;2022-10-31T02:20:25;4.71;;;4.71;;
66669;SDS011;53568;52.164;4.472;2022-10-31T02:34:07;4.81;;;4.81;;
66669;SDS011;53568;52.164;4.472;2022-10-31T02:36:47;4.97;;;4.97;;
66669;SDS011;53568;52.164;4.472;2022-10-31T02:39:24;5.16;;;5.16;;
66669;SDS011;53568;52.164;4.472;2022-10-31T02:44:35;5.21;;;5.21;;
66669;SDS011;53568;52.164;4.472;2022-10-31T02:50:01;5.19;;;5.19;;
66669;SDS011;53568;52.164;4.472;2022-10-31T02:52:51;5.82;;;5.82;;
66669;SDS011;53568;52.164;4.472;2022-10-31T02:57:53;5.65;;;5.65;;
66669;SDS011;53568;52.164;4.472;2022-10-31T03:00:26;6.00;;;6.00;;
66669;SDS011;53568;52.164;4.472;2022-10-31T03:08:25;6.19;;;6.17;;
66669;SDS011;53568;52.164;4.472;2022-10-31T03:11:00;6.80;;;6.68;;
66669;SDS011;53568;52.164;4.472;2022-10-31T03:19:06;6.69;;;6.69;;
66669;SDS011;53568;52.164;4.472;2022-10-31T03:21:36;6.11;;;6.11;;
66669;SDS011;53568;52.164;4.472;2022-10-31T03:24:11;6.73;;;6.73;;
66669;SDS011;53568;52.164;4.472;2022-10-31T03:26:46;6.61;;;6.61;;
66669;SDS011;53568;52.164;4.472;2022-10-31T03:29:16;7.06;;;7.06;;
66669;SDS011;53568;52.164;4.472;2022-10-31T03:34:51;7.51;;;7.51;;
66669;SDS011;53568;52.164;4.472;2022-10-31T03:37:22;7.43;;;7.43;;
66669;SDS011;53568;52.164;4.472;2022-10-31T03:39:52;7.52;;;7.45;;
66669;SDS011;53568;52.164;4.472;2022-10-31T03:42:23;7.57;;;7.57;;
66669;SDS011;53568;52.164;4.472;2022-10-31T03:44:53;7.41;;;7.40;;
66669;SDS011;53568;52.164;4.472;2022-10-31T03:47:21;7.12;;;7.12;;
66669;SDS011;53568;52.164;4.472;2022-10-31T03:49:48;7.30;;;7.30;;
66669;SDS011;53568;52.164;4.472;2022-10-31T03:55:08;7.44;;;7.44;;
66669;SDS011;53568;52.164;4.472;2022-10-31T03:57:50;7.17;;;7.17;;
66669;SDS011;53568;52.164;4.472;2022-10-31T04:00:32;7.55;;;7.55;;
66669;SDS011;53568;52.164;4.472;2022-10-31T04:03:13;7.51;;;7.51;;
66669;SDS011;53568;52.164;4.472;2022-10-31T04:05:46;7.69;;;7.69;;
66669;SDS011;53568;52.164;4.472;2022-10-31T04:08:17;7.45;;;7.45;;
66669;SDS011;53568;52.164;4.472;2022-10-31T04:10:48;7.46;;;7.46;;
66669;SDS011;53568;52.164;4.472;2022-10-31T04:13:19;7.41;;;7.41;;
66669;SDS011;53568;52.164;4.472;2022-10-31T04:15:52;7.15;;;7.15;;
66669;SDS011;53568;52.164;4.472;2022-10-31T04:18:21;7.32;;;7.32;;
66669;SDS011;53568;52.164;4.472;2022-10-31T04:20:48;7.42;;;7.42;;
66669;SDS011;53568;52.164;4.472;2022-10-31T04:23:25;7.52;;;7.52;;
66669;SDS011;53568;52.164;4.472;2022-10-31T04:25:51;7.24;;;7.24;;
66669;SDS011;53568;52.164;4.472;2022-10-31T04:28:17;7.47;;;7.47;;
66669;SDS011;53568;52.164;4.472;2022-10-31T04:30:43;7.45;;;7.43;;
66669;SDS011;53568;52.164;4.472;2022-10-31T04:33:09;7.03;;;7.03;;
66669;SDS011;53568;52.164;4.472;2022-10-31T04:35:34;7.67;;;7.67;;
66669;SDS011;53568;52.164;4.472;2022-10-31T04:38:00;7.18;;;7.18;;
66669;SDS011;53568;52.164;4.472;2022-10-31T04:40:26;7.63;;;7.63;;
66669;SDS011;53568;52.164;4.472;2022-10-31T04:42:51;8.04;;;8.04;;
66669;SDS011;53568;52.164;4.472;2022-10-31T04:45:17;8.30;;;8.30;;
66669;SDS011;53568;52.164;4.472;2022-10-31T04:47:43;8.44;;;8.44;;
66669;SDS011;53568;52.164;4.472;2022-10-31T04:50:08;8.31;;;8.31;;
66669;SDS011;53568;52.164;4.472;2022-10-31T04:52:41;8.76;;;8.76;;
66669;SDS011;53568;52.164;4.472;2022-10-31T04:55:08;8.89;;;8.88;;
66669;SDS011;53568;52.164;4.472;2022-10-31T04:57:45;9.03;;;9.03;;
66669;SDS011;53568;52.164;4.472;2022-10-31T05:00:13;9.23;;;9.23;;
66669;SDS011;53568;52.164;4.472;2022-10-31T05:02:42;9.50;;;9.48;;
66669;SDS011;53568;52.164;4.472;2022-10-31T05:05:08;9.48;;;9.45;;
66669;SDS011;53568;52.164;4.472;2022-10-31T05:07:37;9.83;;;9.83;;
66669;SDS011;53568;52.164;4.472;2022-10-31T05:10:05;10.44;;;10.44;;
66669;SDS011;53568;52.164;4.472;2022-10-31T05:12:31;10.56;;;10.56;;
66669;SDS011;53568;52.164;4.472;2022-10-31T05:14:56;9.86;;;9.86;;
66669;SDS011;53568;52.164;4.472;2022-10-31T05:17:22;9.80;;;9.80;;
66669;SDS011;53568;52.164;4.472;2022-10-31T05:19:48;10.12;;;10.10;;
66669;SDS011;53568;52.164;4.472;2022-10-31T05:22:13;9.70;;;9.64;;
66669;SDS011;53568;52.164;4.472;2022-10-31T05:24:38;9.80;;;9.80;;
66669;SDS011;53568;52.164;4.472;2022-10-31T05:27:04;9.37;;;9.37;;
66669;SDS011;53568;52.164;4.472;2022-10-31T05:29:29;9.84;;;9.83;;
66669;SDS011;53568;52.164;4.472;2022-10-31T05:31:58;10.11;;;10.11;;
66669;SDS011;53568;52.164;4.472;2022-10-31T05:34:24;10.46;;;10.45;;
66669;SDS011;53568;52.164;4.472;2022-10-31T05:36:49;11.76;;;11.73;;
66669;SDS011;53568;52.164;4.472;2022-10-31T05:39:15;13.23;;;13.23;;
66669;SDS011;53568;52.164;4.472;2022-10-31T05:41:40;14.42;;;14.42;;
66669;SDS011;53568;52.164;4.472;2022-10-31T05:44:06;14.11;;;14.02;;
66669;SDS011;53568;52.164;4.472;2022-10-31T05:46:32;14.26;;;14.12;;
66669;SDS011;53568;52.164;4.472;2022-10-31T05:48:57;13.96;;;13.95;;
66669;SDS011;53568;52.164;4.472;2022-10-31T05:51:22;14.37;;;14.26;;
66669;SDS011;53568;52.164;4.472;2022-10-31T05:53:48;14.56;;;14.56;;
66669;SDS011;53568;52.164;4.472;2022-10-31T05:56:13;15.37;;;15.31;;
66669;SDS011;53568;52.164;4.472;2022-10-31T05:58:39;14.98;;;14.98;;
66669;SDS011;53568;52.164;4.472;2022-10-31T06:01:04;15.90;;;15.56;;
66669;SDS011;53568;52.164;4.472;2022-10-31T06:03:30;15.48;;;15.38;;
66669;SDS011;53568;52.164;4.472;2022-10-31T06:05:56;15.40;;;15.40;;
66669;SDS011;53568;52.164;4.472;2022-10-31T06:08:21;14.97;;;14.96;;
66669;SDS011;53568;52.164;4.472;2022-10-31T06:10:47;15.46;;;15.33;;
66669;SDS011;53568;52.164;4.472;2022-10-31T06:13:12;15.16;;;15.05;;
66669;SDS011;53568;52.164;4.472;2022-10-31T06:15:38;14.98;;;14.84;;
66669;SDS011;53568;52.164;4.472;2022-10-31T06:18:04;15.51;;;15.37;;
66669;SDS011;53568;52.164;4.472;2022-10-31T06:20:31;15.62;;;15.39;;
66669;SDS011;53568;52.164;4.472;2022-10-31T06:22:58;16.01;;;15.88;;
66669;SDS011;53568;52.164;4.472;2022-10-31T06:25:23;16.40;;;16.07;;
66669;SDS011;53568;52.164;4.472;2022-10-31T06:27:49;16.10;;;16.09;;
66669;SDS011;53568;52.164;4.472;2022-10-31T06:30:15;15.92;;;15.92;;
66669;SDS011;53568;52.164;4.472;2022-10-31T06:32:42;16.96;;;16.78;;
66669;SDS011;53568;52.164;4.472;2022-10-31T06:35:08;16.57;;;16.43;;
66669;SDS011;53568;52.164;4.472;2022-10-31T06:37:34;16.05;;;16.01;;
66669;SDS011;53568;52.164;4.472;2022-10-31T06:40:00;16.46;;;16.39;;
66669;SDS011;53568;52.164;4.472;2022-10-31T06:42:25;15.98;;;15.80;;
66669;SDS011;53568;52.164;4.472;2022-10-31T06:44:51;16.57;;;16.32;;
66669;SDS011;53568;52.164;4.472;2022-10-31T06:47:16;17.07;;;16.84;;
66669;SDS011;53568;52.164;4.472;2022-10-31T06:49:42;17.06;;;17.04;;
66669;SDS011;53568;52.164;4.472;2022-10-31T06:52:07;16.91;;;16.78;;
66669;SDS011;53568;52.164;4.472;2022-10-31T06:54:33;17.56;;;17.44;;
66669;SDS011;53568;52.164;4.472;2022-10-31T06:56:58;16.44;;;16.43;;
66669;SDS011;53568;52.164;4.472;2022-10-31T06:59:24;17.57;;;17.51;;
66669;SDS011;53568;52.164;4.472;2022-10-31T07:01:49;17.21;;;17.19;;
66669;SDS011;53568;52.164;4.472;2022-10-31T07:04:15;17.70;;;17.70;;
66669;SDS011;53568;52.164;4.472;2022-10-31T07:06:41;17.17;;;17.17;;
66669;SDS011;53568;52.164;4.472;2022-10-31T07:09:06;17.35;;;17.27;;
66669;SDS011;53568;52.164;4.472;2022-10-31T07:11:32;18.72;;;18.57;;
66669;SDS011;53568;52.164;4.472;2022-10-31T07:13:58;18.12;;;18.06;;
66669;SDS011;53568;52.164;4.472;2022-10-31T07:16:23;17.60;;;17.60;;
66669;SDS011;53568;52.164;4.472;2022-10-31T07:18:49;18.68;;;18.58;;
66669;SDS011;53568;52.164;4.472;2022-10-31T07:21:15;19.02;;;19.01;;
66669;SDS011;53568;52.164;4.472;2022-10-31T07:23:40;19.19;;;19.09;;
66669;SDS011;53568;52.164;4.472;2022-10-31T07:26:07;20.17;;;19.92;;
66669;SDS011;53568;52.164;4.472;2022-10-31T07:28:33;21.11;;;21.02;;
66669;SDS011;53568;52.164;4.472;2022-10-31T07:30:58;21.16;;;21.15;;
66669;SDS011;53568;52.164;4.472;2022-10-31T07:33:24;22.05;;;21.98;;
66669;SDS011;53568;52.164;4.472;2022-10-31T07:35:51;21.49;;;21.44;;
66669;SDS011;53568;52.164;4.472;2022-10-31T07:38:17;21.31;;;21.22;;
66669;SDS011;53568;52.164;4.472;2022-10-31T07:40:43;20.86;;;20.80;;
66669;SDS011;53568;52.164;4.472;2022-10-31T07:43:12;21.24;;;21.09;;
66669;SDS011;53568;52.164;4.472;2022-10-31T07:45:37;21.45;;;21.33;;
66669;SDS011;53568;52.164;4.472;2022-10-31T07:48:03;20.38;;;20.29;;
66669;SDS011;53568;52.164;4.472;2022-10-31T07:50:29;20.51;;;20.44;;
66669;SDS011;53568;52.164;4.472;2022-10-31T07:52:58;20.68;;;20.51;;
66669;SDS011;53568;52.164;4.472;2022-10-31T07:55:28;20.04;;;19.93;;
66669;SDS011;53568;52.164;4.472;2022-10-31T07:57:58;20.32;;;20.25;;
66669;SDS011;53568;52.164;4.472;2022-10-31T08:00:27;20.48;;;20.08;;
66669;SDS011;53568;52.164;4.472;2022-10-31T08:03:00;20.28;;;20.25;;
66669;SDS011;53568;52.164;4.472;2022-10-31T08:05:27;20.14;;;20.06;;
66669;SDS011;53568;52.164;4.472;2022-10-31T08:07:53;20.25;;;20.17;;
66669;SDS011;53568;52.164;4.472;2022-10-31T08:10:19;19.38;;;19.34;;
66669;SDS011;53568;52.164;4.472;2022-10-31T08:12:45;19.37;;;19.31;;
66669;SDS011;53568;52.164;4.472;2022-10-31T08:15:11;19.58;;;19.38;;
66669;SDS011;53568;52.164;4.472;2022-10-31T08:17:37;19.85;;;19.79;;
66669;SDS011;53568;52.164;4.472;2022-10-31T08:20:03;20.10;;;19.90;;
66669;SDS011;53568;52.164;4.472;2022-10-31T08:22:30;21.07;;;20.81;;
66669;SDS011;53568;52.164;4.472;2022-10-31T08:24:56;18.77;;;18.69;;
66669;SDS011;53568;52.164;4.472;2022-10-31T08:27:21;18.14;;;18.07;;
66669;SDS011;53568;52.164;4.472;2022-10-31T08:29:47;18.31;;;18.15;;
66669;SDS011;53568;52.164;4.472;2022-10-31T08:32:13;19.42;;;19.38;;
66669;SDS011;53568;52.164;4.472;2022-10-31T08:34:39;19.57;;;19.44;;
66669;SDS011;53568;52.164;4.472;2022-10-31T08:37:04;19.45;;;19.33;;
66669;SDS011;53568;52.164;4.472;2022-10-31T08:39:30;19.82;;;19.62;;
66669;SDS011;53568;52.164;4.472;2022-10-31T08:41:55;20.89;;;20.77;;
66669;SDS011;53568;52.164;4.472;2022-10-31T08:44:21;21.19;;;21.09;;
66669;SDS011;53568;52.164;4.472;2022-10-31T08:46:46;21.29;;;21.16;;
66669;SDS011;53568;52.164;4.472;2022-10-31T08:49:12;20.95;;;20.86;;
66669;SDS011;53568;52.164;4.472;2022-10-31T08:51:37;21.95;;;21.72;;
66669;SDS011;53568;52.164;4.472;2022-10-31T08:54:03;20.84;;;20.70;;
66669;SDS011;53568;52.164;4.472;2022-10-31T08:56:29;22.12;;;21.94;;
66669;SDS011;53568;52.164;4.472;2022-10-31T08:58:54;21.98;;;21.76;;
66669;SDS011;53568;52.164;4.472;2022-10-31T09:01:20;22.59;;;22.30;;
66669;SDS011;53568;52.164;4.472;2022-10-31T09:03:45;22.45;;;22.23;;
66669;SDS011;53568;52.164;4.472;2022-10-31T09:06:11;24.04;;;23.70;;
66669;SDS011;53568;52.164;4.472;2022-10-31T09:08:36;24.68;;;24.27;;
66669;SDS011;53568;52.164;4.472;2022-10-31T09:11:02;24.42;;;23.85;;
66669;SDS011;53568;52.164;4.472;2022-10-31T09:13:29;24.91;;;24.50;;
66669;SDS011;53568;52.164;4.472;2022-10-31T09:15:55;25.37;;;24.69;;
66669;SDS011;53568;52.164;4.472;2022-10-31T09:18:22;25.94;;;25.58;;
66669;SDS011;53568;52.164;4.472;2022-10-31T09:20:48;26.33;;;25.95;;
66669;SDS011;53568;52.164;4.472;2022-10-31T09:23:16;25.89;;;25.48;;
66669;SDS011;53568;52.164;4.472;2022-10-31T09:25:44;24.82;;;24.40;;
66669;SDS011;53568;52.164;4.472;2022-10-31T09:28:12;24.81;;;24.47;;
66669;SDS011;53568;52.164;4.472;2022-10-31T09:30:39;23.92;;;23.44;;
66669;SDS011;53568;52.164;4.472;2022-10-31T09:33:14;23.17;;;22.67;;
66669;SDS011;53568;52.164;4.472;2022-10-31T09:35:40;23.69;;;23.19;;
66669;SDS011;53568;52.164;4.472;2022-10-31T09:38:08;23.06;;;22.72;;
66669;SDS011;53568;52.164;4.472;2022-10-31T09:40:39;22.96;;;22.52;;
66669;SDS011;53568;52.164;4.472;2022-10-31T09:43:14;22.91;;;22.44;;
66669;SDS011;53568;52.164;4.472;2022-10-31T09:46:00;22.86;;;22.30;;
66669;SDS011;53568;52.164;4.472;2022-10-31T09:54:10;23.58;;;23.12;;
66669;SDS011;53568;52.164;4.472;2022-10-31T09:56:44;24.01;;;23.46;;
66669;SDS011;53568;52.164;4.472;2022-10-31T09:59:23;23.15;;;22.98;;
66669;SDS011;53568;52.164;4.472;2022-10-31T10:04:48;22.91;;;22.56;;
66669;SDS011;53568;52.164;4.472;2022-10-31T10:16:14;22.96;;;22.57;;
66669;SDS011;53568;52.164;4.472;2022-10-31T10:21:59;21.86;;;21.42;;
66669;SDS011;53568;52.164;4.472;2022-10-31T10:24:44;20.96;;;20.65;;
66669;SDS011;53568;52.164;4.472;2022-10-31T10:32:45;20.56;;;20.29;;
66669;SDS011;53568;52.164;4.472;2022-10-31T10:35:23;21.06;;;20.58;;
66669;SDS011;53568;52.164;4.472;2022-10-31T10:37:59;19.83;;;19.67;;
66669;SDS011;53568;52.164;4.472;2022-10-31T10:40:37;19.43;;;19.28;;
66669;SDS011;53568;52.164;4.472;2022-10-31T10:45:53;19.91;;;19.72;;
66669;SDS011;53568;52.164;4.472;2022-10-31T10:51:23;20.83;;;20.43;;
66669;SDS011;53568;52.164;4.472;2022-10-31T10:59:16;21.06;;;20.81;;
66669;SDS011;53568;52.164;4.472;2022-10-31T11:01:46;20.99;;;20.65;;
66669;SDS011;53568;52.164;4.472;2022-10-31T11:04:21;21.24;;;20.97;;
66669;SDS011;53568;52.164;4.472;2022-10-31T11:07:00;20.34;;;20.19;;
66669;SDS011;53568;52.164;4.472;2022-10-31T11:09:30;20.52;;;20.29;;
66669;SDS011;53568;52.164;4.472;2022-10-31T11:11:57;20.71;;;20.52;;
66669;SDS011;53568;52.164;4.472;2022-10-31T11:14:23;21.73;;;21.30;;
66669;SDS011;53568;52.164;4.472;2022-10-31T11:16:53;21.70;;;21.26;;
66669;SDS011;53568;52.164;4.472;2022-10-31T11:19:33;22.39;;;22.29;;
66669;SDS011;53568;52.164;4.472;2022-10-31T11:22:07;22.40;;;22.10;;
66669;SDS011;53568;52.164;4.472;2022-10-31T11:24:39;22.60;;;22.40;;
66669;SDS011;53568;52.164;4.472;2022-10-31T11:27:16;23.72;;;23.46;;
66669;SDS011;53568;52.164;4.472;2022-10-31T11:29:46;23.12;;;22.65;;
66669;SDS011;53568;52.164;4.472;2022-10-31T11:32:16;23.37;;;22.91;;
66669;SDS011;53568;52.164;4.472;2022-10-31T11:34:46;23.54;;;23.30;;
66669;SDS011;53568;52.164;4.472;2022-10-31T11:37:21;23.67;;;23.43;;
66669;SDS011;53568;52.164;4.472;2022-10-31T11:39:54;24.54;;;24.09;;
66669;SDS011;53568;52.164;4.472;2022-10-31T11:42:26;23.87;;;23.52;;
66669;SDS011;53568;52.164;4.472;2022-10-31T11:44:59;24.09;;;23.80;;
66669;SDS011;53568;52.164;4.472;2022-10-31T11:47:40;24.20;;;23.85;;
66669;SDS011;53568;52.164;4.472;2022-10-31T11:50:10;24.24;;;23.90;;
66669;SDS011;53568;52.164;4.472;2022-10-31T11:52:43;23.77;;;23.37;;
66669;SDS011;53568;52.164;4.472;2022-10-31T11:57:49;23.88;;;23.30;;
66669;SDS011;53568;52.164;4.472;2022-10-31T12:00:20;23.50;;;23.05;;
66669;SDS011;53568;52.164;4.472;2022-10-31T12:02:48;22.34;;;22.11;;
66669;SDS011;53568;52.164;4.472;2022-10-31T12:05:18;21.41;;;21.26;;
66669;SDS011;53568;52.164;4.472;2022-10-31T12:07:48;21.60;;;21.31;;
66669;SDS011;53568;52.164;4.472;2022-10-31T12:10:14;22.14;;;21.60;;
66669;SDS011;53568;52.164;4.472;2022-10-31T12:12:45;22.61;;;22.00;;
66669;SDS011;53568;52.164;4.472;2022-10-31T12:26:45;22.90;;;22.43;;
66669;SDS011;53568;52.164;4.472;2022-10-31T12:37:44;24.28;;;23.74;;
66669;SDS011;53568;52.164;4.472;2022-10-31T12:43:44;25.39;;;24.89;;
66669;SDS011;53568;52.164;4.472;2022-10-31T12:46:10;26.40;;;25.81;;
66669;SDS011;53568;52.164;4.472;2022-10-31T12:57:46;30.35;;;29.85;;
66669;SDS011;53568;52.164;4.472;2022-10-31T13:00:16;28.09;;;27.66;;
66669;SDS011;53568;52.164;4.472;2022-10-31T13:05:34;28.14;;;27.67;;
66669;SDS011;53568;52.164;4.472;2022-10-31T13:10:52;29.43;;;28.77;;
66669;SDS011;53568;52.164;4.472;2022-10-31T13:16:01;30.59;;;29.86;;
66669;SDS011;53568;52.164;4.472;2022-10-31T13:18:36;31.63;;;30.90;;
66669;SDS011;53568;52.164;4.472;2022-10-31T13:21:10;32.59;;;31.58;;
66669;SDS011;53568;52.164;4.472;2022-10-31T13:23:43;32.32;;;31.45;;
66669;SDS011;53568;52.164;4.472;2022-10-31T13:26:57;32.75;;;31.42;;
66669;SDS011;53568;52.164;4.472;2022-10-31T13:31:40;31.80;;;30.90;;
66669;SDS011;53568;52.164;4.472;2022-10-31T13:40:03;31.43;;;30.72;;
66669;SDS011;53568;52.164;4.472;2022-10-31T13:42:55;30.79;;;30.07;;
66669;SDS011;53568;52.164;4.472;2022-10-31T13:45:25;31.62;;;30.69;;
66669;SDS011;53568;52.164;4.472;2022-10-31T13:47:55;32.22;;;31.42;;
66669;SDS011;53568;52.164;4.472;2022-10-31T13:50:30;31.95;;;30.99;;
66669;SDS011;53568;52.164;4.472;2022-10-31T13:53:09;33.03;;;32.04;;
66669;SDS011;53568;52.164;4.472;2022-10-31T13:55:42;32.55;;;31.48;;
66669;SDS011;53568;52.164;4.472;2022-10-31T13:58:26;32.97;;;32.10;;
66669;SDS011;53568;52.164;4.472;2022-10-31T14:00:59;32.80;;;32.08;;
66669;SDS011;53568;52.164;4.472;2022-10-31T14:03:35;33.29;;;32.52;;
66669;SDS011;53568;52.164;4.472;2022-10-31T14:06:04;33.26;;;32.52;;
66669;SDS011;53568;52.164;4.472;2022-10-31T14:08:35;34.80;;;33.99;;
66669;SDS011;53568;52.164;4.472;2022-10-31T14:11:17;34.76;;;33.69;;
66669;SDS011;53568;52.164;4.472;2022-10-31T14:13:49;34.46;;;33.50;;
66669;SDS011;53568;52.164;4.472;2022-10-31T14:16:26;34.69;;;33.68;;
66669;SDS011;53568;52.164;4.472;2022-10-31T14:21:31;35.56;;;34.44;;
66669;SDS011;53568;52.164;4.472;2022-10-31T14:31:55;36.97;;;35.41;;
66669;SDS011;53568;52.164;4.472;2022-10-31T14:34:41;35.98;;;35.02;;
66669;SDS011;53568;52.164;4.472;2022-10-31T14:40:05;36.87;;;35.19;;
66669;SDS011;53568;52.164;4.472;2022-10-31T14:47:51;36.78;;;35.64;;
66669;SDS011;53568;52.164;4.472;2022-10-31T14:50:44;36.12;;;35.05;;
66669;SDS011;53568;52.164;4.472;2022-10-31T14:53:18;37.47;;;36.30;;
66669;SDS011;53568;52.164;4.472;2022-10-31T14:55:52;36.33;;;35.37;;
66669;SDS011;53568;52.164;4.472;2022-10-31T14:58:21;37.42;;;36.01;;
66669;SDS011;53568;52.164;4.472;2022-10-31T15:00:54;36.85;;;35.55;;
66669;SDS011;53568;52.164;4.472;2022-10-31T15:05:50;35.78;;;34.64;;
66669;SDS011;53568;52.164;4.472;2022-10-31T15:08:31;35.94;;;34.84;;
66669;SDS011;53568;52.164;4.472;2022-10-31T15:11:16;35.86;;;34.81;;
66669;SDS011;53568;52.164;4.472;2022-10-31T15:13:55;36.42;;;35.19;;
66669;SDS011;53568;52.164;4.472;2022-10-31T15:16:26;35.72;;;34.58;;
66669;SDS011;53568;52.164;4.472;2022-10-31T15:19:07;35.71;;;34.69;;
66669;SDS011;53568;52.164;4.472;2022-10-31T15:21:40;35.59;;;34.59;;
66669;SDS011;53568;52.164;4.472;2022-10-31T15:24:11;35.77;;;34.71;;
66669;SDS011;53568;52.164;4.472;2022-10-31T15:26:44;35.08;;;34.25;;
66669;SDS011;53568;52.164;4.472;2022-10-31T15:29:14;34.54;;;33.28;;
66669;SDS011;53568;52.164;4.472;2022-10-31T15:36:58;35.68;;;34.57;;
66669;SDS011;53568;52.164;4.472;2022-10-31T15:39:24;35.16;;;34.18;;
66669;SDS011;53568;52.164;4.472;2022-10-31T15:41:53;35.29;;;34.06;;
66669;SDS011;53568;52.164;4.472;2022-10-31T15:44:23;33.64;;;32.62;;
66669;SDS011;53568;52.164;4.472;2022-10-31T15:47:35;34.86;;;33.60;;
66669;SDS011;53568;52.164;4.472;2022-10-31T15:49:56;34.43;;;33.15;;
66669;SDS011;53568;52.164;4.472;2022-10-31T15:55:15;33.87;;;32.81;;
66669;SDS011;53568;52.164;4.472;2022-10-31T15:57:42;34.14;;;32.91;;
66669;SDS011;53568;52.164;4.472;2022-10-31T16:00:29;33.83;;;32.67;;
66669;SDS011;53568;52.164;4.472;2022-10-31T16:03:05;34.03;;;32.80;;
66669;SDS011;53568;52.164;4.472;2022-10-31T16:05:36;33.35;;;32.42;;
66669;SDS011;53568;52.164;4.472;2022-10-31T16:08:04;33.60;;;32.56;;
66669;SDS011;53568;52.164;4.472;2022-10-31T16:10:56;33.93;;;32.91;;
66669;SDS011;53568;52.164;4.472;2022-10-31T16:13:28;33.55;;;32.60;;
66669;SDS011;53568;52.164;4.472;2022-10-31T16:15:57;33.75;;;32.48;;
66669;SDS011;53568;52.164;4.472;2022-10-31T16:18:26;33.41;;;32.29;;
66669;SDS011;53568;52.164;4.472;2022-10-31T16:20:55;33.85;;;32.63;;
66669;SDS011;53568;52.164;4.472;2022-10-31T16:23:22;32.77;;;31.70;;
66669;SDS011;53568;52.164;4.472;2022-10-31T16:25:51;33.70;;;32.71;;
66669;SDS011;53568;52.164;4.472;2022-10-31T16:28:18;33.85;;;32.70;;
66669;SDS011;53568;52.164;4.472;2022-10-31T16:30:53;32.22;;;31.40;;
66669;SDS011;53568;52.164;4.472;2022-10-31T16:33:22;32.12;;;31.22;;
66669;SDS011;53568;52.164;4.472;2022-10-31T16:35:58;32.50;;;31.66;;
66669;SDS011;53568;52.164;4.472;2022-10-31T16:38:27;33.04;;;32.09;;
66669;SDS011;53568;52.164;4.472;2022-10-31T16:40:52;33.15;;;32.07;;
66669;SDS011;53568;52.164;4.472;2022-10-31T16:43:19;33.25;;;32.25;;
66669;SDS011;53568;52.164;4.472;2022-10-31T16:45:48;32.45;;;31.48;;
66669;SDS011;53568;52.164;4.472;2022-10-31T16:48:17;33.22;;;32.12;;
66669;SDS011;53568;52.164;4.472;2022-10-31T16:50:45;32.45;;;31.66;;
66669;SDS011;53568;52.164;4.472;2022-10-31T16:53:12;32.31;;;31.51;;
66669;SDS011;53568;52.164;4.472;2022-10-31T16:55:55;32.32;;;31.40;;
66669;SDS011;53568;52.164;4.472;2022-10-31T16:58:32;31.79;;;30.87;;
66669;SDS011;53568;52.164;4.472;2022-10-31T17:01:00;32.92;;;31.66;;
66669;SDS011;53568;52.164;4.472;2022-10-31T17:03:29;33.47;;;31.97;;
66669;SDS011;53568;52.164;4.472;2022-10-31T17:05:55;32.13;;;31.20;;
66669;SDS011;53568;52.164;4.472;2022-10-31T17:08:21;32.24;;;31.17;;
66669;SDS011;53568;52.164;4.472;2022-10-31T17:10:52;32.03;;;31.08;;
66669;SDS011;53568;52.164;4.472;2022-10-31T17:13:21;32.51;;;31.30;;
66669;SDS011;53568;52.164;4.472;2022-10-31T17:15:50;31.84;;;31.09;;
66669;SDS011;53568;52.164;4.472;2022-10-31T17:18:19;31.67;;;30.87;;
66669;SDS011;53568;52.164;4.472;2022-10-31T17:20:45;31.62;;;30.74;;
66669;SDS011;53568;52.164;4.472;2022-10-31T17:23:12;31.46;;;30.52;;